createdAt,value
2022-10-11T00:14:55.354Z,8.2
2022-10-11T00:30:37.725Z,8.2
2022-10-11T00:46:20.349Z,9.6
2022-10-11T01:02:02.983Z,9.8
2022-10-11T01:17:45.948Z,8.89
2022-10-11T01:33:28.770Z,10.3
2022-10-11T01:49:11.831Z,10.5
2022-10-11T02:04:54.037Z,16.6
2022-10-11T02:20:37.115Z,14.8
2022-10-11T02:36:19.654Z,13.6
2022-10-11T02:52:02.167Z,14.7
2022-10-11T03:07:44.713Z,12.1
2022-10-11T03:23:27.493Z,14.3
2022-10-11T03:39:09.869Z,14.5
2022-10-11T03:54:52.541Z,13.6
2022-10-11T04:10:34.785Z,17.7
2022-10-11T04:26:17.584Z,13
2022-10-11T04:42:00.519Z,15.6
2022-10-11T04:57:43.424Z,18.1
2022-10-11T05:13:25.670Z,19.4
2022-10-11T05:29:08.019Z,25.2
2022-10-11T05:44:50.235Z,20.5
2022-10-11T06:00:32.700Z,22.6
2022-10-11T06:16:15.408Z,24
2022-10-11T06:31:58.564Z,24.8
2022-10-11T06:47:41.070Z,22.3
2022-10-11T07:03:23.196Z,18.79
2022-10-11T07:19:05.993Z,21
2022-10-11T07:34:48.612Z,15.5
2022-10-11T07:50:31.089Z,14.1
2022-10-11T08:06:13.735Z,14.3
2022-10-11T08:21:55.910Z,9
2022-10-11T08:37:38.188Z,10.9
2022-10-11T08:53:20.322Z,9.5
2022-10-11T09:09:02.659Z,11.8
2022-10-11T09:24:44.759Z,8.2
2022-10-11T09:40:27.772Z,7.7
2022-10-11T09:56:10.037Z,6.4
2022-10-11T10:11:52.934Z,7.9
2022-10-11T10:27:35.159Z,9
2022-10-11T10:43:17.783Z,8.6
2022-10-11T10:59:00.655Z,10.7
2022-10-11T11:14:42.859Z,21.7
2022-10-11T11:30:25.396Z,9.5
2022-10-11T11:46:08.025Z,13.7
2022-10-11T12:01:50.269Z,9.2
2022-10-11T12:02:37.543Z,9.7
2022-10-11T12:18:20.075Z,9.2
2022-10-11T12:34:02.371Z,6.7
2022-10-11T12:49:45.282Z,9.39
2022-10-11T13:05:27.666Z,10.6
2022-10-11T13:21:10.666Z,8.1
2022-10-11T13:36:52.757Z,7.4
2022-10-11T13:52:35.177Z,7.4
2022-10-11T14:08:17.749Z,11.2
2022-10-11T14:23:59.922Z,17
2022-10-11T14:39:42.351Z,8.2
2022-10-11T14:55:25.161Z,11.3
2022-10-11T15:11:07.489Z,8
2022-10-11T15:26:49.738Z,9.5
2022-10-11T15:42:32.368Z,9
2022-10-11T15:58:15.020Z,11.6
2022-10-11T16:13:57.144Z,16.9
2022-10-11T16:29:39.995Z,9.8
2022-10-11T16:45:23.063Z,14
2022-10-11T17:01:05.485Z,12.2
2022-10-11T17:16:48.102Z,12
2022-10-11T17:32:30.819Z,12.1
2022-10-11T17:48:12.963Z,15.1
2022-10-11T18:03:55.648Z,15.8
2022-10-11T18:19:38.111Z,18.1
2022-10-11T18:35:20.250Z,21.1
2022-10-11T18:51:02.777Z,19.79
2022-10-11T19:06:45.724Z,23.2
2022-10-11T19:22:28.690Z,24.6
2022-10-11T19:38:11.212Z,39.9
2022-10-11T19:53:54.215Z,25.7
2022-10-11T20:09:36.595Z,25
2022-10-11T20:25:19.738Z,35.3
2022-10-11T20:41:01.879Z,34.2
2022-10-11T20:56:45.006Z,32.7
2022-10-11T21:12:27.860Z,35.5
2022-10-11T21:28:10.000Z,33.9
2022-10-11T21:43:53.022Z,32.09
2022-10-11T21:59:35.217Z,32.4
2022-10-11T22:15:18.244Z,23.8
2022-10-11T22:31:01.102Z,31.6
2022-10-11T22:46:43.230Z,24.1
2022-10-11T23:02:25.477Z,21.6
2022-10-11T23:18:08.537Z,20.6
2022-10-11T23:33:51.550Z,19.9
2022-10-11T23:49:34.056Z,21.2
